Terminal Aerodrome Forecast
Issued by NWS

Home | Current Version | Previous Version | Text Only | Print | Product List | Glossary On
Versions: 1 2 3 4 5 6 7 8 9 10 11 12 13 14 15 16 17 18 19 20 21 22 23 24
000
FTUS42 KGSP 231130
TAFHKY
TAF
KHKY 231130Z 2312/2412 23003KT P6SM SCT120
     FM231600 21007KT P6SM SCT060
     FM232100 22008KT P6SM BKN050 PROB30 2321/2403 4SM -TSRA
      OVC025CB
     FM240300 21006KT P6SM VCTS SCT050CB BKN100
     FM240800 VRB02KT 4SM BR BKN150=

USA.gov is the U.S. government's official web portal to all federal, state and local government web resources and services.